Terminal Aerodrome Forecast
Issued by NWS Billings, MT

Home | Current Version | Previous Version | Text Only | Print | Product List | Glossary On
Versions: 1 2 3 4 5 6 7 8 9 10 11 12 13 14 15 16 17 18 19 20 21 22 23 24 25 26 27 28 29 30 31 32 33 34 35 36 37 38 39 40
000
FTUS45 KBYZ 230027 AAA
TAFBIL
TAF AMD
KBIL 230027Z 2300/2324 07009KT P6SM TS BKN080CB BKN120
     FM230045 26040G50KT 3SM TSRAGS BKN025CB OVC050
     FM230145 09011KT P6SM VCTS BKN080CB
     FM230400 05007KT P6SM BKN100
     FM230600 08005KT P6SM FEW100
     FM231200 14006KT P6SM SKC
     FM231800 15008KT P6SM FEW100=

USA.gov is the U.S. government's official web portal to all federal, state and local government web resources and services.